sensor_id;sensor_type;location;lat;lon;timestamp;P1;P2;P0
57798;PMS7003;43626;53.866;30.298;2023-07-08T00:02:19;12.2;10.2;7
57798;PMS7003;43626;53.866;30.298;2023-07-08T00:07:19;11;9;6.4
57798;PMS7003;43626;53.866;30.298;2023-07-08T00:12:27;9.8;8.6;5.8
57798;PMS7003;43626;53.866;30.298;2023-07-08T00:17:12;10.6;7.8;5.2
57798;PMS7003;43626;53.866;30.298;2023-07-08T00:22:43;9;9;5.8
57798;PMS7003;43626;53.866;30.298;2023-07-08T00:28:04;11;9.6;6.4
57798;PMS7003;43626;53.866;30.298;2023-07-08T00:32:12;11;9.2;6.2
57798;PMS7003;43626;53.866;30.298;2023-07-08T00:37:19;10.8;9.2;6
57798;PMS7003;43626;53.866;30.298;2023-07-08T00:42:44;10.6;9;5.8
57798;PMS7003;43626;53.866;30.298;2023-07-08T00:47:27;10.8;8.2;5.4
57798;PMS7003;43626;53.866;30.298;2023-07-08T00:52:33;10.4;8.6;5.2
57798;PMS7003;43626;53.866;30.298;2023-07-08T00:57:38;10.2;8.8;5.8
57798;PMS7003;43626;53.866;30.298;2023-07-08T01:02:54;11.2;10.2;6.8
57798;PMS7003;43626;53.866;30.298;2023-07-08T01:07:11;8.8;8.2;5.6
57798;PMS7003;43626;53.866;30.298;2023-07-08T01:12:54;9.6;8.4;5.6
57798;PMS7003;43626;53.866;30.298;2023-07-08T01:18:02;9;7.4;5
57798;PMS7003;43626;53.866;30.298;2023-07-08T01:22:53;10.5;9.5;6
57798;PMS7003;43626;53.866;30.298;2023-07-08T01:27:34;9;8.2;4.8
57798;PMS7003;43626;53.866;30.298;2023-07-08T01:32:39;8.4;7;4.4
57798;PMS7003;43626;53.866;30.298;2023-07-08T01:38:00;8.4;7.8;5.6
57798;PMS7003;43626;53.866;30.298;2023-07-08T01:42:11;8;7.4;5.2
57798;PMS7003;43626;53.866;30.298;2023-07-08T01:47:37;8.8;7.4;5.2
57798;PMS7003;43626;53.866;30.298;2023-07-08T01:52:46;8.4;7.2;4.6
57798;PMS7003;43626;53.866;30.298;2023-07-08T01:58:01;8;7;4.8
57798;PMS7003;43626;53.866;30.298;2023-07-08T02:03:01;10.4;8.8;5.4
57798;PMS7003;43626;53.866;30.298;2023-07-08T02:07:37;7;6.8;5
57798;PMS7003;43626;53.866;30.298;2023-07-08T02:12:19;9;7.4;5
57798;PMS7003;43626;53.866;30.298;2023-07-08T02:17:33;8.4;7;5.2
57798;PMS7003;43626;53.866;30.298;2023-07-08T02:23:02;7.3;6.3;4.5
57798;PMS7003;43626;53.866;30.298;2023-07-08T02:27:45;9.2;8.8;5.4
57798;PMS7003;43626;53.866;30.298;2023-07-08T02:32:39;9.6;7.4;4.6
57798;PMS7003;43626;53.866;30.298;2023-07-08T02:38:01;9.6;8.6;5.8
57798;PMS7003;43626;53.866;30.298;2023-07-08T02:42:45;7.8;7.2;4.4
57798;PMS7003;43626;53.866;30.298;2023-07-08T02:47:20;7.8;6.8;4.8
57798;PMS7003;43626;53.866;30.298;2023-07-08T02:52:19;9.6;7;4.4
57798;PMS7003;43626;53.866;30.298;2023-07-08T02:58:02;7.6;6.8;5
57798;PMS7003;43626;53.866;30.298;2023-07-08T03:03:02;8;8;5.6
57798;PMS7003;43626;53.866;30.298;2023-07-08T03:08:01;10.6;8.8;5.2
57798;PMS7003;43626;53.866;30.298;2023-07-08T03:13:01;9.8;8.8;5.6
57798;PMS7003;43626;53.866;30.298;2023-07-08T03:17:22;8.8;7.4;5.2
57798;PMS7003;43626;53.866;30.298;2023-07-08T03:22:55;8.5;6.8;4.8
57798;PMS7003;43626;53.866;30.298;2023-07-08T03:28:02;8.6;7.6;4.8
57798;PMS7003;43626;53.866;30.298;2023-07-08T03:33:02;10.2;8.2;5.4
57798;PMS7003;43626;53.866;30.298;2023-07-08T03:37:42;8.4;8;5.4
57798;PMS7003;43626;53.866;30.298;2023-07-08T03:42:26;7.4;6.4;4.4
57798;PMS7003;43626;53.866;30.298;2023-07-08T03:47:40;7.6;7.2;4.8
57798;PMS7003;43626;53.866;30.298;2023-07-08T03:52:20;9;7.2;4.6
57798;PMS7003;43626;53.866;30.298;2023-07-08T03:57:20;10.4;8.8;5.8
57798;PMS7003;43626;53.866;30.298;2023-07-08T04:02:12;12.4;10.2;7.2
57798;PMS7003;43626;53.866;30.298;2023-07-08T04:07:42;13;12;7.8
57798;PMS7003;43626;53.866;30.298;2023-07-08T04:12:22;9.8;8.2;5.2
57798;PMS7003;43626;53.866;30.298;2023-07-08T04:17:46;9.2;8.4;6.4
57798;PMS7003;43626;53.866;30.298;2023-07-08T04:22:38;7.4;7;5.4
57798;PMS7003;43626;53.866;30.298;2023-07-08T04:27:20;8.8;8.5;6
57798;PMS7003;43626;53.866;30.298;2023-07-08T04:32:12;9;7.6;5.8
57798;PMS7003;43626;53.866;30.298;2023-07-08T04:37:26;9.4;7.6;5.8
57798;PMS7003;43626;53.866;30.298;2023-07-08T04:42:32;10.4;7.8;5.2
57798;PMS7003;43626;53.866;30.298;2023-07-08T04:47:42;9.8;8.2;4.8
57798;PMS7003;43626;53.866;30.298;2023-07-08T04:53:02;11;9.8;7
57798;PMS7003;43626;53.866;30.298;2023-07-08T04:57:18;13.4;12;7.8
57798;PMS7003;43626;53.866;30.298;2023-07-08T05:02:12;21.8;19.4;12.8
57798;PMS7003;43626;53.866;30.298;2023-07-08T05:08:02;14.6;13;8.2
57798;PMS7003;43626;53.866;30.298;2023-07-08T05:12:26;8.6;7.8;5
57798;PMS7003;43626;53.866;30.298;2023-07-08T05:17:12;8;7.2;4.6
57798;PMS7003;43626;53.866;30.298;2023-07-08T05:22:20;9.4;8;4.6
57798;PMS7003;43626;53.866;30.298;2023-07-08T05:27:40;8.3;7.3;4.8
57798;PMS7003;43626;53.866;30.298;2023-07-08T05:32:12;9.8;8;5.2
57798;PMS7003;43626;53.866;30.298;2023-07-08T05:37:12;8.8;7.2;5
57798;PMS7003;43626;53.866;30.298;2023-07-08T05:43:02;7.6;6.6;3.8
57798;PMS7003;43626;53.866;30.298;2023-07-08T05:47:54;8.4;7.2;4.6
57798;PMS7003;43626;53.866;30.298;2023-07-08T05:52:26;10.2;7.8;5
57798;PMS7003;43626;53.866;30.298;2023-07-08T05:57:46;7.2;6;3.4
57798;PMS7003;43626;53.866;30.298;2023-07-08T06:03:02;6.8;6.4;4.2
57798;PMS7003;43626;53.866;30.298;2023-07-08T06:07:26;7;6.4;4.6
57798;PMS7003;43626;53.866;30.298;2023-07-08T06:12:12;8.8;7.4;4.6
57798;PMS7003;43626;53.866;30.298;2023-07-08T06:17:46;8;7;4.8
57798;PMS7003;43626;53.866;30.298;2023-07-08T06:22:54;8.2;6;4.2
57798;PMS7003;43626;53.866;30.298;2023-07-08T06:28:02;7;6.8;4.3
57798;PMS7003;43626;53.866;30.298;2023-07-08T06:32:30;7.8;6.4;4.8
57798;PMS7003;43626;53.866;30.298;2023-07-08T06:37:38;7;6.2;4
57798;PMS7003;43626;53.866;30.298;2023-07-08T06:42:12;7;6.6;4.6
57798;PMS7003;43626;53.866;30.298;2023-07-08T06:48:02;6.8;5.8;3.6
57798;PMS7003;43626;53.866;30.298;2023-07-08T06:52:46;6.8;6.4;4.4
57798;PMS7003;43626;53.866;30.298;2023-07-08T06:57:54;7;6.2;4.4
57798;PMS7003;43626;53.866;30.298;2023-07-08T07:02:54;7;5.8;4.4
57798;PMS7003;43626;53.866;30.298;2023-07-08T07:07:46;6.4;5.4;4
57798;PMS7003;43626;53.866;30.298;2023-07-08T07:12:12;7.4;7;5
57798;PMS7003;43626;53.866;30.298;2023-07-08T07:17:20;7.8;6.4;4.6
57798;PMS7003;43626;53.866;30.298;2023-07-08T07:23:02;7.8;7.6;6
57798;PMS7003;43626;53.866;30.298;2023-07-08T07:28:02;8;8;6
57798;PMS7003;43626;53.866;30.298;2023-07-08T07:33:02;9.8;9.6;7.2
57798;PMS7003;43626;53.866;30.298;2023-07-08T07:37:54;8.2;6.4;4.6
57798;PMS7003;43626;53.866;30.298;2023-07-08T07:42:46;7.8;7.4;6
57798;PMS7003;43626;53.866;30.298;2023-07-08T07:47:12;9.4;8.6;6.8
57798;PMS7003;43626;53.866;30.298;2023-07-08T07:52:46;6.2;5.8;4
57798;PMS7003;43626;53.866;30.298;2023-07-08T07:58:02;7.4;5.8;3.8
57798;PMS7003;43626;53.866;30.298;2023-07-08T08:02:42;5.2;4.8;3.4
57798;PMS7003;43626;53.866;30.298;2023-07-08T08:07:54;5.6;4.4;3
57798;PMS7003;43626;53.866;30.298;2023-07-08T08:13:02;6;4.8;3
57798;PMS7003;43626;53.866;30.298;2023-07-08T08:17:20;4.6;4.2;3.2
57798;PMS7003;43626;53.866;30.298;2023-07-08T08:22:20;4.2;4.2;2.8
57798;PMS7003;43626;53.866;30.298;2023-07-08T08:27:26;5.3;4.3;3.3
57798;PMS7003;43626;53.866;30.298;2023-07-08T08:32:42;5.4;5.2;3.8
57798;PMS7003;43626;53.866;30.298;2023-07-08T08:37:42;9.2;9.2;7.6
57798;PMS7003;43626;53.866;30.298;2023-07-08T08:42:49;8.2;8.2;6.2
57798;PMS7003;43626;53.866;30.298;2023-07-08T08:47:13;7.4;6.4;5.4
57798;PMS7003;43626;53.866;30.298;2023-07-08T08:52:32;7.2;6.8;5.6
57798;PMS7003;43626;53.866;30.298;2023-07-08T08:57:43;6.4;5.6;3.8
57798;PMS7003;43626;53.866;30.298;2023-07-08T09:03:01;7.8;7.8;6.8
57798;PMS7003;43626;53.866;30.298;2023-07-08T09:07:12;8.8;8.6;7
57798;PMS7003;43626;53.866;30.298;2023-07-08T09:12:48;8.6;7.2;6
57798;PMS7003;43626;53.866;30.298;2023-07-08T09:18:04;12;11.2;9.4
57798;PMS7003;43626;53.866;30.298;2023-07-08T09:22:19;9.8;8.4;6.8
57798;PMS7003;43626;53.866;30.298;2023-07-08T09:27:12;18.6;17;14.6
57798;PMS7003;43626;53.866;30.298;2023-07-08T09:33:02;20.5;18.5;15.8
57798;PMS7003;43626;53.866;30.298;2023-07-08T09:37:20;31.8;28.8;23.8
57798;PMS7003;43626;53.866;30.298;2023-07-08T09:42:12;18.6;16.6;14.4
57798;PMS7003;43626;53.866;30.298;2023-07-08T09:47:33;9.4;8;6.8
57798;PMS7003;43626;53.866;30.298;2023-07-08T09:52:52;7;6;4.8
57798;PMS7003;43626;53.866;30.298;2023-07-08T09:57:12;23.4;21.4;18.6
57798;PMS7003;43626;53.866;30.298;2023-07-08T10:02:20;38.8;34.6;28.2
57798;PMS7003;43626;53.866;30.298;2023-07-08T10:08:00;37.8;31.4;21.2
57798;PMS7003;43626;53.866;30.298;2023-07-08T10:12:55;40.6;34.6;28
57798;PMS7003;43626;53.866;30.298;2023-07-08T10:17:35;44;38;30.8
57798;PMS7003;43626;53.866;30.298;2023-07-08T10:22:22;42.6;35.8;29.4
57798;PMS7003;43626;53.866;30.298;2023-07-08T10:28:20;47.6;41;32.6
57798;PMS7003;43626;53.866;30.298;2023-07-08T10:32:36;48.5;41.8;34
57798;PMS7003;43626;53.866;30.298;2023-07-08T10:37:28;46.8;40;32.8
57798;PMS7003;43626;53.866;30.298;2023-07-08T10:42:50;39.8;34.8;29.2
57798;PMS7003;43626;53.866;30.298;2023-07-08T10:47:57;41.4;36;31.8
57798;PMS7003;43626;53.866;30.298;2023-07-08T10:53:04;59;47.6;38
57798;PMS7003;43626;53.866;30.298;2023-07-08T10:57:58;58.2;48;42
57798;PMS7003;43626;53.866;30.298;2023-07-08T11:02:15;54.8;46;41.4
57798;PMS7003;43626;53.866;30.298;2023-07-08T11:07:35;62.8;53.6;50
57798;PMS7003;43626;53.866;30.298;2023-07-08T11:13:03;55.8;46.6;41.6
57798;PMS7003;43626;53.866;30.298;2023-07-08T11:17:15;47.2;40.4;33.4
57798;PMS7003;43626;53.866;30.298;2023-07-08T11:22:57;61.2;50.6;45.6
57798;PMS7003;43626;53.866;30.298;2023-07-08T11:28:03;65.8;56;51.8
57798;PMS7003;43626;53.866;30.298;2023-07-08T11:33:03;67.3;58;55
57798;PMS7003;43626;53.866;30.298;2023-07-08T11:37:38;80.8;75;68
57798;PMS7003;43626;53.866;30.298;2023-07-08T11:42:15;72.6;64.4;57
57798;PMS7003;43626;53.866;30.298;2023-07-08T11:48:06;79.8;76.6;74
57798;PMS7003;43626;53.866;30.298;2023-07-08T11:53:03;70.8;64;61.8
57798;PMS7003;43626;53.866;30.298;2023-07-08T11:58:02;53.6;44.2;36.8
57798;PMS7003;43626;53.866;30.298;2023-07-08T12:03:04;56;50.2;46.6
57798;PMS7003;43626;53.866;30.298;2023-07-08T12:07:47;43.2;37.4;31.2
57798;PMS7003;43626;53.866;30.298;2023-07-08T12:12:14;43.6;38;32.2
57798;PMS7003;43626;53.866;30.298;2023-07-08T12:17:22;20;18.4;16
57798;PMS7003;43626;53.866;30.298;2023-07-08T12:23:02;12.8;11.8;10.4
57798;PMS7003;43626;53.866;30.298;2023-07-08T12:27:42;21;21;18.6
57798;PMS7003;43626;53.866;30.298;2023-07-08T12:32:20;17.3;16.3;15.3
57798;PMS7003;43626;53.866;30.298;2023-07-08T12:38:00;23.6;22.6;19.2
57798;PMS7003;43626;53.866;30.298;2023-07-08T12:42:12;25.2;24.4;20.6
57798;PMS7003;43626;53.866;30.298;2023-07-08T12:47:12;32.8;29.8;24
57798;PMS7003;43626;53.866;30.298;2023-07-08T12:52:26;24.4;23.2;19.4
57798;PMS7003;43626;53.866;30.298;2023-07-08T12:57:36;36.6;32.8;26.8
57798;PMS7003;43626;53.866;30.298;2023-07-08T13:02:43;31.6;28;23.8
57798;PMS7003;43626;53.866;30.298;2023-07-08T13:07:44;41.6;36.8;29.6
57798;PMS7003;43626;53.866;30.298;2023-07-08T13:12:13;38.6;33.8;28
57798;PMS7003;43626;53.866;30.298;2023-07-08T13:17:13;32;29;24.4
57798;PMS7003;43626;53.866;30.298;2023-07-08T13:22:42;33.6;30.8;25.6
57798;PMS7003;43626;53.866;30.298;2023-07-08T13:27:40;41.8;35;26.6
57798;PMS7003;43626;53.866;30.298;2023-07-08T13:32:29;30.8;28;21.5
57798;PMS7003;43626;53.866;30.298;2023-07-08T13:37:55;32.2;30.2;24.4
57798;PMS7003;43626;53.866;30.298;2023-07-08T13:43:02;24;23.2;19.2
57798;PMS7003;43626;53.866;30.298;2023-07-08T13:47:20;44.8;36.6;24.6
57798;PMS7003;43626;53.866;30.298;2023-07-08T13:52:20;21.2;20.4;18.6
57798;PMS7003;43626;53.866;30.298;2023-07-08T13:58:02;21.8;20.4;18.6
57798;PMS7003;43626;53.866;30.298;2023-07-08T14:02:14;21.4;20.4;17.8
57798;PMS7003;43626;53.866;30.298;2023-07-08T14:07:13;21.8;21.4;18.4
57798;PMS7003;43626;53.866;30.298;2023-07-08T14:12:20;51.2;42;29.2
57798;PMS7003;43626;53.866;30.298;2023-07-08T14:17:54;41.8;36.4;28.6
57798;PMS7003;43626;53.866;30.298;2023-07-08T14:22:21;48.8;41.2;33.8
57798;PMS7003;43626;53.866;30.298;2023-07-08T14:27:12;71.8;64.4;47.8
57798;PMS7003;43626;53.866;30.298;2023-07-08T14:33:02;80.8;69.8;52.2
57798;PMS7003;43626;53.866;30.298;2023-07-08T14:37:54;55.8;46.3;40.3
57798;PMS7003;43626;53.866;30.298;2023-07-08T14:42:34;61.8;54.8;52.4
57798;PMS7003;43626;53.866;30.298;2023-07-08T14:47:13;72.4;66;64.6
57798;PMS7003;43626;53.866;30.298;2023-07-08T14:53:02;53.2;47;43.6
57798;PMS7003;43626;53.866;30.298;2023-07-08T14:57:25;52;46.2;41.6
57798;PMS7003;43626;53.866;30.298;2023-07-08T15:02:26;60;50.8;46.4
57798;PMS7003;43626;53.866;30.298;2023-07-08T15:07:40;57;51;46
57798;PMS7003;43626;53.866;30.298;2023-07-08T15:13:02;78.6;74.4;72
57798;PMS7003;43626;53.866;30.298;2023-07-08T15:18:03;83.8;81.6;80.8
57798;PMS7003;43626;53.866;30.298;2023-07-08T15:22:30;98.8;96;89.8
57798;PMS7003;43626;53.866;30.298;2023-07-08T15:27:20;63.2;54;49
57798;PMS7003;43626;53.866;30.298;2023-07-08T15:32:20;71.8;65;63.4
57798;PMS7003;43626;53.866;30.298;2023-07-08T15:38:02;62.8;51.8;47.8
57798;PMS7003;43626;53.866;30.298;2023-07-08T15:42:22;64.2;53.6;50
57798;PMS7003;43626;53.866;30.298;2023-07-08T15:47:54;67.4;60.6;57.4
57798;PMS7003;43626;53.866;30.298;2023-07-08T15:53:00;67;58.4;56.2
57798;PMS7003;43626;53.866;30.298;2023-07-08T15:57:45;74.6;69.6;67.8
57798;PMS7003;43626;53.866;30.298;2023-07-08T16:02:28;66.2;60.2;56.6
57798;PMS7003;43626;53.866;30.298;2023-07-08T16:07:12;74;69.2;67.4
57798;PMS7003;43626;53.866;30.298;2023-07-08T16:13:02;83.8;83;81.8
57798;PMS7003;43626;53.866;30.298;2023-07-08T16:18:02;82.2;78.8;77.4
57798;PMS7003;43626;53.866;30.298;2023-07-08T16:23:02;106.6;105.8;103.4
57798;PMS7003;43626;53.866;30.298;2023-07-08T16:28:02;98.6;98.2;96.2
57798;PMS7003;43626;53.866;30.298;2023-07-08T16:32:46;103;102.6;101
57798;PMS7003;43626;53.866;30.298;2023-07-08T16:38:02;115.3;114.5;113.8
57798;PMS7003;43626;53.866;30.298;2023-07-08T16:42:47;122.6;122.2;120.4
57798;PMS7003;43626;53.866;30.298;2023-07-08T16:48:02;114.2;112.8;111.8
57798;PMS7003;43626;53.866;30.298;2023-07-08T16:52:42;117.2;116.4;115.4
57798;PMS7003;43626;53.866;30.298;2023-07-08T16:57:26;105.2;104.4;102.8
57798;PMS7003;43626;53.866;30.298;2023-07-08T17:03:02;110;109.2;107.8
57798;PMS7003;43626;53.866;30.298;2023-07-08T17:07:20;114.4;114;112.6
57798;PMS7003;43626;53.866;30.298;2023-07-08T17:12:20;122.6;121.2;119.2
57798;PMS7003;43626;53.866;30.298;2023-07-08T17:17:12;120.6;118.8;116.6
57798;PMS7003;43626;53.866;30.298;2023-07-08T17:22:34;118.4;117.4;115.8
57798;PMS7003;43626;53.866;30.298;2023-07-08T17:27:42;122.4;120.8;118.2
57798;PMS7003;43626;53.866;30.298;2023-07-08T17:33:02;119.6;118.4;116.6
57798;PMS7003;43626;53.866;30.298;2023-07-08T17:37:26;127.5;127;125.3
57798;PMS7003;43626;53.866;30.298;2023-07-08T17:42:20;126.2;125.4;124.4
57798;PMS7003;43626;53.866;30.298;2023-07-08T17:47:42;135.4;135;134
57798;PMS7003;43626;53.866;30.298;2023-07-08T17:52:12;131.4;130.6;129
57798;PMS7003;43626;53.866;30.298;2023-07-08T17:57:47;128.8;127;125.6
57798;PMS7003;43626;53.866;30.298;2023-07-08T18:02:53;122.2;121.4;118.8
57798;PMS7003;43626;53.866;30.298;2023-07-08T18:08:02;121.2;119.4;117.2
57798;PMS7003;43626;53.866;30.298;2023-07-08T18:12:12;116.6;115.8;112
57798;PMS7003;43626;53.866;30.298;2023-07-08T18:17:20;114.4;113.6;111
57798;PMS7003;43626;53.866;30.298;2023-07-08T18:23:02;115.4;113.8;111.4
57798;PMS7003;43626;53.866;30.298;2023-07-08T18:27:26;96;93.2;89.6
57798;PMS7003;43626;53.866;30.298;2023-07-08T18:32:32;59;49;42.2
57798;PMS7003;43626;53.866;30.298;2023-07-08T18:38:02;48;40.3;31.3
57798;PMS7003;43626;53.866;30.298;2023-07-08T18:42:22;55.6;44.6;35.2
57798;PMS7003;43626;53.866;30.298;2023-07-08T18:47:20;48;40.4;30.4
57798;PMS7003;43626;53.866;30.298;2023-07-08T18:52:12;36.6;31.2;23.2
57798;PMS7003;43626;53.866;30.298;2023-07-08T18:58:02;49;39.8;28.6
57798;PMS7003;43626;53.866;30.298;2023-07-08T19:02:55;46.6;38.2;27.2
57798;PMS7003;43626;53.866;30.298;2023-07-08T19:07:34;41;33.2;22.6
57798;PMS7003;43626;53.866;30.298;2023-07-08T19:12:12;35.8;30.6;21.6
57798;PMS7003;43626;53.866;30.298;2023-07-08T19:18:01;39.6;32.8;23.2
57798;PMS7003;43626;53.866;30.298;2023-07-08T19:22:20;36.6;31;22.2
57798;PMS7003;43626;53.866;30.298;2023-07-08T19:27:20;49.4;40.4;30
57798;PMS7003;43626;53.866;30.298;2023-07-08T19:32:47;52.4;43;32.4
57798;PMS7003;43626;53.866;30.298;2023-07-08T19:37:54;55.2;44.4;33.6
57798;PMS7003;43626;53.866;30.298;2023-07-08T19:43:00;47.8;39.5;30
57798;PMS7003;43626;53.866;30.298;2023-07-08T19:47:44;43.6;36.6;27.6
57798;PMS7003;43626;53.866;30.298;2023-07-08T19:52:30;40.8;33.6;26.2
57798;PMS7003;43626;53.866;30.298;2023-07-08T19:57:12;48.4;40.6;30.8
57798;PMS7003;43626;53.866;30.298;2023-07-08T20:03:02;54.4;44.6;33.8
57798;PMS7003;43626;53.866;30.298;2023-07-08T20:07:46;52.4;43.4;32.4
57798;PMS7003;43626;53.866;30.298;2023-07-08T20:12:55;50.6;41.6;31.6
57798;PMS7003;43626;53.866;30.298;2023-07-08T20:18:02;51;42.6;32
57798;PMS7003;43626;53.866;30.298;2023-07-08T20:22:32;46;38;28.2
57798;PMS7003;43626;53.866;30.298;2023-07-08T20:27:20;41.8;35;24.6
57798;PMS7003;43626;53.866;30.298;2023-07-08T20:32:32;34.4;29.8;20.2
57798;PMS7003;43626;53.866;30.298;2023-07-08T20:38:02;29.4;25.2;16.8
57798;PMS7003;43626;53.866;30.298;2023-07-08T20:42:48;24.3;23.3;15.5
57798;PMS7003;43626;53.866;30.298;2023-07-08T20:48:02;25.2;20.6;13.4
57798;PMS7003;43626;53.866;30.298;2023-07-08T20:53:02;23.2;19.8;13.8
57798;PMS7003;43626;53.866;30.298;2023-07-08T20:57:42;19.2;18.4;12
57798;PMS7003;43626;53.866;30.298;2023-07-08T21:02:20;20;17;11.8
57798;PMS7003;43626;53.866;30.298;2023-07-08T21:07:46;21.8;20;13.6
57798;PMS7003;43626;53.866;30.298;2023-07-08T21:13:02;18.2;16.8;11.6
57798;PMS7003;43626;53.866;30.298;2023-07-08T21:17:42;17.6;15;10.8
57798;PMS7003;43626;53.866;30.298;2023-07-08T21:22:36;16;13.2;10.2
57798;PMS7003;43626;53.866;30.298;2023-07-08T21:28:02;10;8.8;6
57798;PMS7003;43626;53.866;30.298;2023-07-08T21:32:20;9.4;8.4;5.6
57798;PMS7003;43626;53.866;30.298;2023-07-08T21:37:20;8.6;7.8;5.6
57798;PMS7003;43626;53.866;30.298;2023-07-08T21:42:18;10.5;8.8;6.5
57798;PMS7003;43626;53.866;30.298;2023-07-08T21:47:34;8.6;7.8;6
57798;PMS7003;43626;53.866;30.298;2023-07-08T21:52:40;9.2;8;5.6
57798;PMS7003;43626;53.866;30.298;2023-07-08T21:58:02;9.4;8.6;6.6
57798;PMS7003;43626;53.866;30.298;2023-07-08T22:02:30;9.2;8;5.8
57798;PMS7003;43626;53.866;30.298;2023-07-08T22:07:13;9.4;8;5.8
57798;PMS7003;43626;53.866;30.298;2023-07-08T22:12:43;9.2;8.8;7
57798;PMS7003;43626;53.866;30.298;2023-07-08T22:17:18;9.2;8.4;6.6
57798;PMS7003;43626;53.866;30.298;2023-07-08T22:22:34;9.8;7.4;5.6
57798;PMS7003;43626;53.866;30.298;2023-07-08T22:27:52;6;5.4;3.8
57798;PMS7003;43626;53.866;30.298;2023-07-08T22:33:02;6.2;6.2;4.4
57798;PMS7003;43626;53.866;30.298;2023-07-08T22:37:42;8.4;7.2;5.2
57798;PMS7003;43626;53.866;30.298;2023-07-08T22:42:38;6.5;6.3;4.8
57798;PMS7003;43626;53.866;30.298;2023-07-08T22:48:04;9;8.2;6.4
57798;PMS7003;43626;53.866;30.298;2023-07-08T22:52:14;9;8.4;5.6
57798;PMS7003;43626;53.866;30.298;2023-07-08T22:57:34;10;8;6
57798;PMS7003;43626;53.866;30.298;2023-07-08T23:02:38;10.6;9.8;6.4
57798;PMS7003;43626;53.866;30.298;2023-07-08T23:07:34;9.6;9.2;6.6
57798;PMS7003;43626;53.866;30.298;2023-07-08T23:12:20;9.6;9;6.2
57798;PMS7003;43626;53.866;30.298;2023-07-08T23:17:30;9.6;9;6.2
57798;PMS7003;43626;53.866;30.298;2023-07-08T23:23:02;9.8;9.6;7.4
57798;PMS7003;43626;53.866;30.298;2023-07-08T23:27:54;11.6;10;6.8
57798;PMS7003;43626;53.866;30.298;2023-07-08T23:32:32;10.6;9.6;6.6
57798;PMS7003;43626;53.866;30.298;2023-07-08T23:37:13;12;8.8;7.2
57798;PMS7003;43626;53.866;30.298;2023-07-08T23:43:02;10;9;6.8
57798;PMS7003;43626;53.866;30.298;2023-07-08T23:47:19;11.4;9.8;7.2
57798;PMS7003;43626;53.866;30.298;2023-07-08T23:52:32;10.2;8.6;7.2
57798;PMS7003;43626;53.866;30.298;2023-07-08T23:57:46;9.8;9.8;8
